Chatham, MA (02633)

11:56 PM EDT on August 30, 2015 (GMT -0400)
Oyster Pond and River | | Change Station
CLOSE
Current Station
Personal Weather Station
Location: Chatham, MA
Elevation: 69 ft
Nearby Weather Stations

Elev 69 ft 41.68 °N, 69.97 °W | Updated 3 seconds ago

Mostly Cloudy
Mostly Cloudy
74.6 °F
Feels Like 77 °F
N
19.0
Wind Variable Wind from WSW
Gusts 19.0 mph

Today
High -- | Low -- °F
--% Chance of Precip.
Yesterday
High -- | Low -- °F
Precip. -- in
6:03 AM 7:16 PM
Full, 97% visible
Pressure 30.04 in
Visibility 10.0 miles
Clouds Scattered Clouds 7000 ft
Mostly Cloudy 9500 ft
Mostly Cloudy 12000 ft
Heat Index 77 °F
Dew Point 63 °F
Humidity 68%
Rainfall 0.00 in
Snow Depth Not available.
UV 0 out of 12
Pollen 10.70 out of 12
Air Quality Not available.
Flu Activity Not available.
METAR KCQX 310352Z AUTO 24009G17KT 10SM SCT070 BKN095 BKN120 23/21 A3003 RMK AO2 SLP172 T02280206 $
Pressure 30.04 in
Visibility 10.0 miles
Clouds Scattered Clouds 7000 ft
Mostly Cloudy 9500 ft
Mostly Cloudy 12000 ft
Heat Index 77 °F
Dew Point 63 °F
Humidity 68%
Rainfall 0.00 in
Snow Depth Not available.
UV 0 out of 12
Pollen 10.70 out of 12
Air Quality Not available.
Flu Activity Not available.
METAR KCQX 310352Z AUTO 24009G17KT 10SM SCT070 BKN095 BKN120 23/21 A3003 RMK AO2 SLP172 T02280206 $

10-Day Weather Forecast

×

Almanac

Astronomy

Aug. 30, 2015 Rise Set
Actual Time
Civil Twilight
Nautical Twilight
Astronomical Twilight
Moon
Length of Visible Light
Length of Day
Tomorrow will be .
, % of the Moon is Illuminated

Today's Extremes

State Highs State Lows

Community

WunderPhotos

Upload Photos

1,851,179 photos uploaded!

WunderBlogs® & News

Nearby

Air Quality

  Air Quality AQ Index Pollutant
Not available.

Snow Depth

Station Depth Elevation

Earthquake Activity

City Distance Mag. Time & Date
Minimum magnitude displayed is 2.5.

Coastal Water Temperatures

Place Temperature

Stations

Nearby Weather Stations

Station Location Temp. Windchill Dew Point Humidity Wind Precip. Elev Updated Type